Time;durP1;ratioP1;P1;durP2;ratioP2;P2;SDS_P1;SDS_P2;PMS_P1;PMS_P2;Temp;Humidity;BMP_temperature;BMP_pressure;BME280_temperature;BME280_humidity;BME280_pressure;Samples;Min_cycle;Max_cycle;Signal;HPM_P1;HPM_P2
2022/10/09 00:00:07;;;;;;;7.05;2.45;;;;;;;13.72;100.00;101140.75;5065796;28;20414;-86
2022/10/09 00:02:33;;;;;;;4.43;2.80;;;;;;;13.72;100.00;101138.13;5067295;28;20028;-86
2022/10/09 00:04:58;;;;;;;7.18;2.45;;;;;;;13.70;100.00;101137.47;5066470;28;20121;-85
2022/10/09 00:07:24;;;;;;;5.93;2.78;;;;;;;13.78;100.00;101133.13;5063606;28;20139;-85
2022/10/09 00:09:49;;;;;;;5.95;3.30;;;;;;;13.79;100.00;101141.81;5060393;28;20365;-85
2022/10/09 00:12:14;;;;;;;7.35;3.13;;;;;;;13.76;100.00;101129.00;5066038;28;20067;-85
2022/10/09 00:14:40;;;;;;;8.30;3.00;;;;;;;13.70;100.00;101135.69;5061416;28;20093;-85
2022/10/09 00:17:05;;;;;;;6.68;3.05;;;;;;;13.69;100.00;101141.91;5066099;28;20024;-85
2022/10/09 00:19:31;;;;;;;8.95;3.08;;;;;;;13.64;100.00;101138.06;5066389;28;20029;-87
2022/10/09 00:21:56;;;;;;;9.93;2.63;;;;;;;13.66;100.00;101138.75;5064966;28;20093;-86
2022/10/09 00:24:21;;;;;;;14.15;3.45;;;;;;;13.63;100.00;101134.63;5064661;28;20039;-85
2022/10/09 00:26:47;;;;;;;10.98;3.10;;;;;;;13.54;100.00;101130.28;5065407;28;20052;-85
2022/10/09 00:29:12;;;;;;;5.22;2.92;;;;;;;13.55;100.00;101137.97;5066216;28;20036;-85
2022/10/09 00:31:38;;;;;;;6.00;3.05;;;;;;;13.55;100.00;101134.53;5066768;28;20028;-85
2022/10/09 00:34:04;;;;;;;3.45;2.78;;;;;;;13.52;100.00;101132.22;5067816;28;20042;-85
2022/10/09 00:36:30;;;;;;;7.38;3.10;;;;;;;13.48;100.00;101130.84;5063766;28;21664;-86
2022/10/09 00:38:55;;;;;;;5.05;3.58;;;;;;;13.42;100.00;101132.28;5065197;28;20033;-85
2022/10/09 00:41:24;;;;;;;3.90;2.83;;;;;;;13.38;100.00;101133.53;5064332;28;20464;-85
2022/10/09 00:43:53;;;;;;;4.35;2.78;;;;;;;13.39;100.00;101127.31;5069793;28;20025;-86
2022/10/09 00:46:40;;;;;;;4.20;3.05;;;;;;;13.38;100.00;101120.44;5068785;28;20036;-85
2022/10/09 00:49:14;;;;;;;4.78;3.05;;;;;;;13.40;100.00;101108.03;5069729;28;20028;-85
2022/10/09 00:51:42;;;;;;;5.18;3.40;;;;;;;13.39;100.00;101119.47;5072359;28;20038;-85
2022/10/09 00:54:10;;;;;;;7.15;2.67;;;;;;;13.39;100.00;101114.25;5061821;28;20039;-85
2022/10/09 00:56:36;;;;;;;8.18;3.25;;;;;;;13.40;100.00;101120.28;5077387;28;20037;-85
2022/10/09 00:59:03;;;;;;;6.82;3.03;;;;;;;13.39;100.00;101118.66;5080920;28;20055;-85
2022/10/09 01:01:28;;;;;;;5.55;2.80;;;;;;;13.38;100.00;101117.81;5074177;28;20553;-85
2022/10/09 01:03:53;;;;;;;6.53;2.88;;;;;;;13.35;100.00;101112.06;5062542;28;20041;-85
2022/10/09 01:06:43;;;;;;;5.32;2.70;;;;;;;13.32;100.00;101121.03;5069597;28;20024;-85
2022/10/09 01:09:18;;;;;;;5.05;2.60;;;;;;;13.25;100.00;101112.94;5068793;28;20497;-84
2022/10/09 01:12:03;;;;;;;8.30;2.50;;;;;;;13.19;100.00;101115.34;5066418;28;20036;-85
2022/10/09 01:14:37;;;;;;;8.75;3.38;;;;;;;13.12;100.00;101120.28;5068372;28;20122;-84
2022/10/09 01:17:12;;;;;;;3.20;2.65;;;;;;;13.13;100.00;101123.72;5068491;28;20305;-85
2022/10/09 01:20:06;;;;;;;4.75;2.88;;;;;;;13.14;100.00;101114.91;5060679;28;20060;-86
2022/10/09 01:23:05;;;;;;;6.93;2.72;;;;;;;13.15;100.00;101113.94;5069723;28;20513;-85
2022/10/09 01:25:55;;;;;;;4.85;2.80;;;;;;;13.08;100.00;101116.31;5060181;28;20500;-85
2022/10/09 01:28:27;;;;;;;6.47;3.03;;;;;;;13.12;100.00;101116.84;5065877;28;20079;-85
2022/10/09 01:30:55;;;;;;;6.47;2.88;;;;;;;13.10;100.00;101116.16;5056624;28;20027;-86
2022/10/09 01:33:21;;;;;;;6.68;3.17;;;;;;;13.09;100.00;101110.09;5069008;28;20499;-85
2022/10/09 01:35:46;;;;;;;6.20;3.05;;;;;;;13.13;100.00;101102.78;5066197;28;20071;-85
2022/10/09 01:38:12;;;;;;;3.58;3.20;;;;;;;13.11;100.00;101105.56;5066269;28;20082;-85
2022/10/09 01:40:38;;;;;;;4.93;2.38;;;;;;;13.12;100.00;101106.38;5067912;28;20436;-84
2022/10/09 01:43:04;;;;;;;5.65;2.85;;;;;;;13.10;100.00;101108.31;5064313;28;20488;-86
2022/10/09 01:45:40;;;;;;;4.13;2.92;;;;;;;13.08;100.00;101113.69;5070274;28;20028;-85
2022/10/09 01:48:10;;;;;;;6.25;2.90;;;;;;;13.12;100.00;101106.38;5066964;28;20028;-85
2022/10/09 01:50:42;;;;;;;5.95;3.40;;;;;;;13.16;100.00;101105.16;5068633;28;20032;-85
2022/10/09 01:53:11;;;;;;;4.30;3.03;;;;;;;13.15;100.00;101106.09;5066437;28;20040;-84
2022/10/09 01:55:49;;;;;;;7.95;3.65;;;;;;;13.11;100.00;101107.34;5067842;28;20060;-84
2022/10/09 01:58:40;;;;;;;4.05;2.40;;;;;;;13.05;100.00;101100.91;5066510;28;20037;-84
2022/10/09 02:01:16;;;;;;;4.32;2.40;;;;;;;13.07;100.00;101106.00;5058469;28;20037;-85
2022/10/09 02:03:47;;;;;;;4.35;2.58;;;;;;;13.08;100.00;101105.84;5063113;28;20032;-85
2022/10/09 02:06:15;;;;;;;3.83;2.90;;;;;;;13.11;100.00;101095.09;5066972;28;20036;-86
2022/10/09 02:08:42;;;;;;;6.00;2.95;;;;;;;13.11;100.00;101094.28;5065113;28;20125;-84
2022/10/09 02:11:09;;;;;;;6.88;3.15;;;;;;;13.09;100.00;101107.50;5066174;28;20041;-85
2022/10/09 02:13:35;;;;;;;4.82;3.20;;;;;;;13.07;100.00;101104.19;5066860;28;20032;-85
2022/10/09 02:16:20;;;;;;;8.63;3.35;;;;;;;13.06;100.00;101104.34;5050367;28;20025;-86
2022/10/09 02:18:55;;;;;;;7.03;3.10;;;;;;;12.98;100.00;101106.84;5067097;28;20039;-85
2022/10/09 02:21:25;;;;;;;8.75;3.03;;;;;;;13.01;100.00;101093.50;5065477;28;20137;-86
2022/10/09 02:23:52;;;;;;;3.90;3.33;;;;;;;13.02;100.00;101100.38;5065969;28;20032;-83
2022/10/09 02:26:18;;;;;;;6.25;2.58;;;;;;;13.10;100.00;101106.53;5068058;28;20052;-85
2022/10/09 02:28:44;;;;;;;7.30;2.97;;;;;;;13.11;100.00;101109.97;5069910;28;20016;-84
2022/10/09 02:31:32;;;;;;;5.43;2.90;;;;;;;13.11;100.00;101104.75;5068349;28;20509;-85
2022/10/09 02:33:59;;;;;;;3.95;2.80;;;;;;;13.12;100.00;101103.75;5060567;28;20036;-84
2022/10/09 02:36:26;;;;;;;3.83;2.88;;;;;;;13.13;100.00;101110.66;5064441;28;20036;-84
2022/10/09 02:38:53;;;;;;;4.13;2.60;;;;;;;13.13;100.00;101098.38;5066211;28;20028;-84
2022/10/09 02:41:19;;;;;;;5.97;2.25;;;;;;;13.12;100.00;101109.00;5347327;22;20337;-85
2022/10/09 02:43:44;;;;;;;3.65;2.90;;;;;;;13.12;100.00;101104.59;5031817;28;20036;-85
2022/10/09 02:46:10;;;;;;;6.78;3.00;;;;;;;13.09;100.00;101106.66;5032080;28;20021;-85
2022/10/09 02:48:35;;;;;;;5.85;2.25;;;;;;;13.08;100.00;101102.41;5032015;28;20301;-85
2022/10/09 02:51:01;;;;;;;12.38;3.25;;;;;;;13.01;100.00;101109.19;5049782;28;20021;-85
2022/10/09 02:53:26;;;;;;;7.60;2.85;;;;;;;13.00;100.00;101104.91;5049640;28;20425;-85
2022/10/09 02:55:52;;;;;;;4.95;2.75;;;;;;;13.00;100.00;101100.50;5049766;28;20029;-85
2022/10/09 02:58:17;;;;;;;3.78;2.15;;;;;;;12.97;100.00;101103.41;5049382;28;20150;-84
2022/10/09 03:00:47;;;;;;;5.22;2.50;;;;;;;12.96;100.00;101105.22;5049813;28;20104;-84
2022/10/09 03:03:12;;;;;;;5.75;2.88;;;;;;;13.04;100.00;101108.91;5049663;28;20188;-84
2022/10/09 03:05:38;;;;;;;5.60;2.95;;;;;;;13.01;100.00;101096.94;5049872;28;20081;-84
2022/10/09 03:08:03;;;;;;;5.47;2.75;;;;;;;13.01;100.00;101101.34;5049603;28;20025;-85
2022/10/09 03:10:28;;;;;;;3.80;2.65;;;;;;;13.00;100.00;101099.69;5032010;28;20111;-85
2022/10/09 03:12:54;;;;;;;7.28;3.30;;;;;;;12.94;100.00;101114.16;5031401;28;20116;-85
2022/10/09 03:15:19;;;;;;;6.10;2.60;;;;;;;12.98;100.00;101114.69;5049579;28;20029;-85
2022/10/09 03:17:45;;;;;;;5.43;2.53;;;;;;;13.02;100.00;101114.28;5049098;28;20059;-85
2022/10/09 03:20:10;;;;;;;2.30;2.10;;;;;;;13.02;100.00;101110.84;5030976;28;20388;-86
2022/10/09 03:22:36;;;;;;;4.93;2.97;;;;;;;13.02;100.00;101118.69;5031331;28;20025;-86
2022/10/09 03:25:01;;;;;;;9.07;3.20;;;;;;;12.99;100.00;101121.59;5049413;28;20036;-85
2022/10/09 03:27:27;;;;;;;6.07;3.42;;;;;;;13.00;100.00;101123.22;5049093;28;20032;-85
2022/10/09 03:29:52;;;;;;;7.60;2.85;;;;;;;13.02;100.00;101123.91;5048663;28;20041;-84
2022/10/09 03:32:17;;;;;;;5.18;2.35;;;;;;;13.10;100.00;101124.00;5048288;28;20096;-85
2022/10/09 03:34:43;;;;;;;5.53;2.25;;;;;;;13.08;100.00;101128.56;5049059;28;20033;-84
2022/10/09 03:37:08;;;;;;;8.40;3.00;;;;;;;13.07;100.00;101119.06;5049514;28;20021;-84
2022/10/09 03:39:34;;;;;;;3.80;2.53;;;;;;;13.00;100.00;101125.84;5030902;28;20033;-85
2022/10/09 03:41:59;;;;;;;5.03;2.60;;;;;;;12.99;100.00;101132.88;5048667;28;20497;-84
2022/10/09 03:44:24;;;;;;;3.85;2.33;;;;;;;12.98;100.00;101127.78;5048823;28;20036;-85
2022/10/09 03:46:51;;;;;;;5.05;2.50;;;;;;;12.98;100.00;101130.41;5029983;28;20116;-85
2022/10/09 03:49:16;;;;;;;6.25;2.50;;;;;;;12.90;100.00;101126.69;5048484;28;20020;-85
2022/10/09 03:51:42;;;;;;;4.82;3.00;;;;;;;12.88;100.00;101130.44;5048439;28;20029;-85
2022/10/09 03:54:07;;;;;;;4.70;2.83;;;;;;;12.93;100.00;101136.88;5030618;28;20507;-85
2022/10/09 03:56:33;;;;;;;7.63;3.17;;;;;;;12.93;100.00;101139.50;5048944;28;20370;-85
2022/10/09 03:58:58;;;;;;;5.55;2.83;;;;;;;12.84;100.00;101134.28;5049346;28;20024;-84
2022/10/09 04:01:24;;;;;;;4.85;2.85;;;;;;;12.83;100.00;101138.69;5049027;28;20025;-85
2022/10/09 04:03:49;;;;;;;4.38;2.60;;;;;;;12.82;100.00;101133.59;5048754;28;20029;-86
2022/10/09 04:06:14;;;;;;;3.20;2.33;;;;;;;12.79;100.00;101137.34;5048937;28;20033;-85
2022/10/09 04:08:40;;;;;;;3.80;2.55;;;;;;;12.83;100.00;101137.88;5048569;28;20519;-85
2022/10/09 04:11:05;;;;;;;7.40;2.85;;;;;;;12.88;100.00;101144.31;5048475;28;20112;-85
2022/10/09 04:13:31;;;;;;;5.57;2.67;;;;;;;12.88;100.00;101151.34;5048554;28;20026;-85
2022/10/09 04:15:56;;;;;;;9.23;3.47;;;;;;;12.92;100.00;101143.06;5048505;28;20113;-85
2022/10/09 04:18:22;;;;;;;3.78;2.53;;;;;;;12.94;100.00;101146.38;5048467;28;20044;-85
2022/10/09 04:20:52;;;;;;;7.22;2.78;;;;;;;13.02;100.00;101147.44;5048554;28;20049;-85
2022/10/09 04:23:19;;;;;;;3.60;1.73;;;;;;;13.08;100.00;101146.88;5048715;28;20033;-85
2022/10/09 04:25:45;;;;;;;6.28;2.67;;;;;;;13.06;100.00;101154.03;5048913;28;20025;-85
2022/10/09 04:28:11;;;;;;;11.88;3.03;;;;;;;13.05;100.00;101157.63;5048135;28;20036;-85
2022/10/09 04:30:37;;;;;;;9.27;2.80;;;;;;;13.01;100.00;101158.88;5050310;28;20049;-85
2022/10/09 04:33:02;;;;;;;7.32;2.92;;;;;;;12.98;100.00;101165.22;5034362;28;20096;-85
2022/10/09 04:35:28;;;;;;;6.43;3.17;;;;;;;12.97;100.00;101168.81;5052750;28;20040;-85
2022/10/09 04:37:53;;;;;;;7.40;2.80;;;;;;;13.02;100.00;101163.97;5033993;28;20032;-85
2022/10/09 04:40:19;;;;;;;4.28;2.75;;;;;;;13.10;100.00;101165.88;5052299;28;20025;-85
2022/10/09 04:42:44;;;;;;;4.60;2.80;;;;;;;13.10;100.00;101171.09;5052078;28;20045;-85
2022/10/09 04:45:10;;;;;;;7.22;2.50;;;;;;;13.04;100.00;101171.69;5034144;28;20044;-85
2022/10/09 04:47:35;;;;;;;6.53;2.92;;;;;;;13.04;100.00;101172.50;5052249;28;20082;-85
2022/10/09 04:50:01;;;;;;;9.73;3.00;;;;;;;13.09;100.00;101172.91;5052076;28;20196;-86
2022/10/09 04:52:26;;;;;;;5.60;3.03;;;;;;;13.08;100.00;101175.66;5052076;28;20100;-85
2022/10/09 04:54:52;;;;;;;8.63;2.63;;;;;;;13.05;100.00;101171.53;5051788;28;20079;-86
2022/10/09 04:57:17;;;;;;;6.38;2.53;;;;;;;13.05;100.00;101168.09;5052065;28;20033;-85
2022/10/09 04:59:43;;;;;;;5.43;2.53;;;;;;;13.00;100.00;101172.94;5051764;28;20021;-85
2022/10/09 05:02:08;;;;;;;7.97;3.05;;;;;;;13.04;100.00;101187.38;5052153;28;20439;-85
2022/10/09 05:04:33;;;;;;;4.85;3.03;;;;;;;12.97;100.00;101181.88;5051580;28;20502;-86
2022/10/09 05:06:59;;;;;;;5.30;3.00;;;;;;;12.96;100.00;101175.81;5051511;28;20024;-85
2022/10/09 05:09:24;;;;;;;6.40;2.50;;;;;;;12.94;100.00;101180.38;5052009;28;20052;-85
2022/10/09 05:11:50;;;;;;;5.03;3.13;;;;;;;12.95;100.00;101179.41;5051193;28;20029;-85
2022/10/09 05:14:15;;;;;;;3.85;2.20;;;;;;;12.94;100.00;101179.56;5050944;28;20021;-84
2022/10/09 05:16:40;;;;;;;3.60;2.50;;;;;;;12.92;100.00;101184.09;5051307;28;20029;-84
2022/10/09 05:19:06;;;;;;;4.82;3.05;;;;;;;12.88;100.00;101183.56;5051475;28;20377;-84
2022/10/09 05:21:31;;;;;;;6.07;3.10;;;;;;;12.82;100.00;101191.97;5051094;28;20491;-84
2022/10/09 05:23:57;;;;;;;7.85;3.10;;;;;;;12.77;100.00;101195.97;5051202;28;20032;-84
2022/10/09 05:26:23;;;;;;;7.90;4.03;;;;;;;12.78;100.00;101197.63;5051035;28;20029;-85
2022/10/09 05:28:49;;;;;;;6.35;4.57;;;;;;;12.80;100.00;101195.69;5050654;28;20439;-83
2022/10/09 05:31:21;;;;;;;6.45;3.45;;;;;;;12.84;100.00;101194.44;5051006;28;20108;-85
2022/10/09 05:33:46;;;;;;;10.82;3.00;;;;;;;12.88;100.00;101203.66;5032164;28;20368;-85
2022/10/09 05:36:12;;;;;;;7.18;3.65;;;;;;;12.90;100.00;101206.94;5050432;28;20040;-85
2022/10/09 05:38:37;;;;;;;6.13;4.03;;;;;;;12.91;100.00;101204.19;5032815;28;20425;-85
2022/10/09 05:41:05;;;;;;;8.00;4.05;;;;;;;12.92;100.00;101210.25;5050905;28;20028;-85
2022/10/09 05:43:36;;;;;;;8.80;4.57;;;;;;;12.90;100.00;101205.16;5050147;28;20751;-85
2022/10/09 05:46:13;;;;;;;9.88;4.65;;;;;;;12.94;100.00;101203.91;5050864;28;20112;-86
2022/10/09 05:48:40;;;;;;;7.28;4.25;;;;;;;12.93;100.00;101215.34;5050947;28;20594;-85
2022/10/09 05:51:07;;;;;;;6.50;3.70;;;;;;;12.93;100.00;101212.72;5050906;28;20067;-85
2022/10/09 05:53:33;;;;;;;6.20;4.15;;;;;;;12.99;100.00;101213.13;5051133;28;20057;-85
2022/10/09 05:56:18;;;;;;;9.35;6.05;;;;;;;13.03;100.00;101219.72;5032885;28;20115;-85
2022/10/09 05:58:49;;;;;;;7.15;6.00;;;;;;;13.08;100.00;101230.59;5051337;28;20064;-85
2022/10/09 06:01:14;;;;;;;7.40;5.40;;;;;;;13.14;100.00;101236.09;5033813;28;20534;-85
2022/10/09 06:03:40;;;;;;;9.60;5.72;;;;;;;13.21;100.00;101241.59;5050899;28;20029;-86
2022/10/09 06:06:07;;;;;;;8.15;4.80;;;;;;;13.26;100.00;101234.13;5050871;28;20029;-84
2022/10/09 06:08:37;;;;;;;8.45;5.20;;;;;;;13.33;100.00;101235.22;5055892;28;20215;-87
2022/10/09 06:11:30;;;;;;;7.53;5.35;;;;;;;13.35;100.00;101235.88;5057283;28;20083;-86
2022/10/09 06:13:57;;;;;;;8.82;4.75;;;;;;;13.39;100.00;101239.88;5051879;28;20147;-86
2022/10/09 06:16:25;;;;;;;8.77;4.40;;;;;;;13.52;100.00;101239.56;5061043;28;20484;-85
2022/10/09 06:18:52;;;;;;;11.13;3.75;;;;;;;13.60;100.00;101235.25;5058566;28;20017;-85
2022/10/09 06:21:17;;;;;;;8.70;4.03;;;;;;;13.69;100.00;101237.97;5055738;28;20195;-85
2022/10/09 06:23:43;;;;;;;7.35;4.05;;;;;;;13.78;100.00;101239.69;5049563;28;20499;-84
2022/10/09 06:26:12;;;;;;;9.07;4.35;;;;;;;13.86;100.00;101252.88;5031169;28;20025;-84
2022/10/09 06:28:38;;;;;;;8.38;4.13;;;;;;;13.98;100.00;101241.22;5048132;28;20040;-84
2022/10/09 06:31:04;;;;;;;9.43;4.03;;;;;;;14.13;100.00;101238.94;5049113;28;20033;-84
2022/10/09 06:33:31;;;;;;;4.45;4.00;;;;;;;14.30;100.00;101240.72;5049284;28;20031;-84
2022/10/09 06:36:01;;;;;;;11.30;3.90;;;;;;;14.44;100.00;101244.66;5049001;28;20032;-82
2022/10/09 06:38:27;;;;;;;10.68;3.83;;;;;;;14.59;100.00;101245.75;5049080;28;20581;-82
2022/10/09 06:40:52;;;;;;;5.82;3.75;;;;;;;14.72;100.00;101245.34;5048884;28;20082;-82
2022/10/09 06:43:17;;;;;;;8.30;4.00;;;;;;;14.80;100.00;101253.28;5030868;28;20488;-82
2022/10/09 06:45:43;;;;;;;6.95;4.22;;;;;;;14.86;100.00;101250.06;5048889;28;20404;-81
2022/10/09 06:48:08;;;;;;;5.15;4.18;;;;;;;14.92;100.00;101255.50;5039712;22;20133;-68
2022/10/09 06:50:36;;;;;;;5.65;4.03;;;;;;;15.01;100.00;101259.03;5008527;28;20030;-67
2022/10/09 06:53:03;;;;;;;6.43;3.80;;;;;;;15.13;100.00;101265.63;5008812;28;20419;-69
2022/10/09 06:55:29;;;;;;;6.43;3.53;;;;;;;15.24;100.00;101267.19;5008929;28;20381;-68
2022/10/09 06:57:54;;;;;;;5.88;4.30;;;;;;;15.30;100.00;101269.19;5008261;28;20026;-69
2022/10/09 07:00:20;;;;;;;7.65;4.03;;;;;;;15.36;100.00;101273.00;5006447;28;20034;-69
2022/10/09 07:02:45;;;;;;;8.88;4.03;;;;;;;15.42;100.00;101277.63;5008203;28;20432;-70
2022/10/09 07:05:11;;;;;;;10.77;4.28;;;;;;;15.50;100.00;101272.41;5007708;28;20109;-71
2022/10/09 07:07:40;;;;;;;7.25;4.30;;;;;;;15.55;100.00;101286.72;5008075;28;20139;-65
2022/10/09 07:10:07;;;;;;;8.80;4.18;;;;;;;15.66;100.00;101288.25;5009049;28;20524;-66
2022/10/09 07:12:37;;;;;;;10.50;4.22;;;;;;;15.80;100.00;101295.56;5009128;28;20602;-69
2022/10/09 07:15:05;;;;;;;8.30;4.03;;;;;;;15.90;100.00;101293.63;5007631;28;20121;-69
2022/10/09 07:17:31;;;;;;;9.00;5.05;;;;;;;15.99;100.00;101294.47;5007734;28;20029;-71
2022/10/09 07:19:57;;;;;;;13.77;4.35;;;;;;;16.07;100.00;101299.75;5007251;28;20535;-69
2022/10/09 07:22:23;;;;;;;7.68;4.03;;;;;;;16.17;100.00;101305.69;5004464;28;20057;-67
2022/10/09 07:24:49;;;;;;;9.50;4.40;;;;;;;16.26;100.00;101302.09;5008917;28;20386;-69
2022/10/09 07:27:15;;;;;;;12.43;4.70;;;;;;;16.37;100.00;101310.66;5007277;28;20042;-68
2022/10/09 07:29:41;;;;;;;8.40;4.88;;;;;;;16.41;100.00;101315.44;5008599;28;20132;-68
2022/10/09 07:32:07;;;;;;;8.00;4.88;;;;;;;16.49;100.00;101322.53;5007429;28;20551;-67
2022/10/09 07:34:32;;;;;;;10.13;4.82;;;;;;;16.55;100.00;101322.69;5008528;28;20046;-69
2022/10/09 07:36:57;;;;;;;6.55;4.88;;;;;;;16.62;100.00;101325.50;5007459;28;20109;-68
2022/10/09 07:39:23;;;;;;;11.95;4.50;;;;;;;16.72;100.00;101323.56;5007777;28;20618;-69
2022/10/09 07:41:50;;;;;;;5.70;4.18;;;;;;;16.83;100.00;101323.25;5006476;28;20067;-66
2022/10/09 07:44:17;;;;;;;8.70;4.45;;;;;;;16.91;100.00;101317.16;4998798;28;20137;-71
2022/10/09 07:46:42;;;;;;;8.60;4.15;;;;;;;16.92;100.00;101314.34;5008641;28;20026;-70
2022/10/09 07:49:08;;;;;;;11.20;4.43;;;;;;;16.99;100.00;101319.78;5019257;28;20049;-73
2022/10/09 07:51:34;;;;;;;10.93;4.65;;;;;;;17.08;100.00;101312.69;5022675;28;20071;-71
2022/10/09 07:54:00;;;;;;;8.98;4.38;;;;;;;17.18;100.00;101315.97;5025098;28;20041;-68
2022/10/09 07:56:29;;;;;;;7.45;4.55;;;;;;;17.29;100.00;101318.25;5027041;28;20026;-68
2022/10/09 07:59:00;;;;;;;9.57;5.13;;;;;;;17.30;100.00;101312.00;5026884;28;20025;-69
2022/10/09 08:01:27;;;;;;;6.60;4.32;;;;;;;17.32;100.00;101331.09;5027167;28;20033;-68
2022/10/09 08:03:53;;;;;;;7.60;3.80;;;;;;;17.38;100.00;101313.81;5026967;28;20033;-68
2022/10/09 08:06:20;;;;;;;5.80;4.72;;;;;;;17.38;100.00;101326.97;5026481;28;20030;-67
2022/10/09 08:08:50;;;;;;;5.57;4.60;;;;;;;17.43;100.00;101330.75;5027966;28;20029;-68
2022/10/09 08:11:17;;;;;;;7.53;4.32;;;;;;;17.47;100.00;101333.88;5028187;28;20109;-68
2022/10/09 08:13:44;;;;;;;4.72;4.25;;;;;;;17.48;100.00;101341.59;5027967;28;20037;-68
2022/10/09 08:16:10;;;;;;;7.30;4.88;;;;;;;17.54;100.00;101338.28;5026993;28;20333;-68
2022/10/09 08:18:36;;;;;;;5.20;4.60;;;;;;;17.62;100.00;101336.59;5026525;28;20035;-67
2022/10/09 08:21:05;;;;;;;11.27;4.55;;;;;;;17.63;100.00;101327.72;5027045;28;20113;-68
2022/10/09 08:23:31;;;;;;;7.60;4.78;;;;;;;17.67;100.00;101329.88;5027734;28;20025;-67
2022/10/09 08:25:58;;;;;;;6.60;4.40;;;;;;;17.65;100.00;101331.00;5026487;28;20036;-67
2022/10/09 08:28:23;;;;;;;6.93;4.28;;;;;;;17.66;100.00;101332.69;5024919;28;20353;-67
2022/10/09 08:30:49;;;;;;;6.75;3.97;;;;;;;17.67;100.00;101335.13;5027942;28;20026;-68
2022/10/09 08:33:19;;;;;;;6.22;4.45;;;;;;;17.69;100.00;101341.06;5027643;28;20026;-67
2022/10/09 08:35:44;;;;;;;5.55;3.95;;;;;;;17.67;100.00;101336.97;5025219;28;20041;-68
2022/10/09 08:38:10;;;;;;;7.40;4.10;;;;;;;17.70;100.00;101334.81;5027456;28;20485;-68
2022/10/09 08:40:56;;;;;;;7.57;3.90;;;;;;;17.72;100.00;101343.38;5027571;28;20041;-67
2022/10/09 08:43:27;;;;;;;;;;;;;;;17.70;100.00;101344.53;5043523;28;20068;-67
2022/10/09 08:45:55;;;;;;;8.63;4.15;;;;;;;17.69;100.00;101341.06;5027841;28;19960;-68
2022/10/09 08:48:25;;;;;;;6.57;4.40;;;;;;;17.74;100.00;101343.19;5025933;28;20100;-67
2022/10/09 08:50:52;;;;;;;8.65;3.92;;;;;;;17.83;100.00;101339.53;5026795;28;20038;-69
2022/10/09 08:53:30;;;;;;;5.60;4.57;;;;;;;17.92;100.00;101340.34;5026594;28;20038;-69
2022/10/09 08:55:57;;;;;;;7.43;4.53;;;;;;;17.96;100.00;101339.00;5027529;28;20037;-68
2022/10/09 08:58:43;;;;;;;12.65;4.22;;;;;;;17.93;100.00;101340.16;5026591;28;20117;-68
2022/10/09 09:01:27;;;;;;;6.82;3.92;;;;;;;17.92;100.00;101345.63;5027663;28;20036;-70
2022/10/09 09:04:21;;;;;;;5.63;3.53;;;;;;;17.95;100.00;101346.09;5027987;28;20165;-70
2022/10/09 09:07:17;;;;;;;7.03;2.85;;;;;;;18.01;100.00;101348.03;5023623;28;20029;-71
2022/10/09 09:10:21;;;;;;;;;;;;;;;18.02;98.39;101348.84;5017407;28;20033;-71
2022/10/09 09:12:52;;;;;;;6.15;3.65;;;;;;;18.04;100.00;101347.69;4965785;28;19990;-70
2022/10/09 09:15:36;;;;;;;5.25;2.83;;;;;;;18.12;100.00;101350.28;4965709;28;20049;-70
2022/10/09 09:18:46;;;;;;;4.80;3.15;;;;;;;18.22;98.00;101356.16;4966789;28;20058;-73
2022/10/09 09:21:16;;;;;;;8.32;3.22;;;;;;;18.36;99.89;101353.78;4966736;28;20039;-70
2022/10/09 09:23:46;;;;;;;5.47;3.15;;;;;;;18.39;98.41;101353.44;4968318;28;20047;-71
2022/10/09 09:26:15;;;;;;;7.50;2.92;;;;;;;18.42;98.05;101348.66;4969055;28;20026;-70
2022/10/09 09:28:42;;;;;;;6.18;3.22;;;;;;;18.41;96.75;101349.66;4967754;28;20125;-72
2022/10/09 09:31:17;;;;;;;9.82;3.67;;;;;;;18.42;97.55;101350.47;4966576;28;20051;-69
2022/10/09 09:34:07;;;;;;;5.82;3.42;;;;;;;18.38;96.22;101344.72;4968963;28;20042;-70
2022/10/09 09:36:53;;;;;;;5.50;3.42;;;;;;;18.38;94.48;101349.16;4968814;28;20061;-70
2022/10/09 09:39:22;;;;;;;5.88;3.42;;;;;;;18.46;96.31;101354.38;4952695;28;20046;-70
2022/10/09 09:41:47;;;;;;;8.57;3.33;;;;;;;18.47;94.54;101348.09;4968901;28;20072;-70
2022/10/09 09:44:16;;;;;;;6.05;2.85;;;;;;;18.50;94.42;101347.75;4999776;28;20050;-70
2022/10/09 09:46:45;;;;;;;8.25;3.50;;;;;;;18.54;93.95;101346.41;5010540;28;20109;-71
2022/10/09 09:49:26;;;;;;;8.43;2.92;;;;;;;18.58;94.40;101353.81;5026992;28;20049;-71
2022/10/09 09:51:53;;;;;;;4.63;2.85;;;;;;;18.68;94.73;101355.44;5028158;28;20112;-73
2022/10/09 09:54:25;;;;;;;7.10;3.10;;;;;;;18.81;93.72;101345.94;5010229;28;20125;-71
2022/10/09 09:56:57;;;;;;;3.85;2.28;;;;;;;18.79;92.49;101347.91;5010645;28;20102;-70
2022/10/09 09:59:36;;;;;;;4.15;2.38;;;;;;;18.87;91.97;101349.69;5021531;28;20076;-73
2022/10/09 10:02:05;;;;;;;7.53;2.95;;;;;;;18.93;91.03;101337.56;5028364;28;20090;-69
2022/10/09 10:04:30;;;;;;;2.97;2.47;;;;;;;18.94;88.29;101339.19;5030245;28;20029;-72
2022/10/09 10:06:56;;;;;;;11.13;3.30;;;;;;;19.11;87.41;101340.72;5030168;28;20152;-70
2022/10/09 10:09:22;;;;;;;9.27;3.50;;;;;;;19.10;86.17;101344.34;5026768;28;21189;-71
2022/10/09 10:11:58;;;;;;;8.02;2.08;;;;;;;19.19;83.39;101344.09;5030103;28;20038;-71
2022/10/09 10:14:25;;;;;;;4.47;1.88;;;;;;;19.16;84.74;101333.91;5029650;28;20025;-69
2022/10/09 10:16:53;;;;;;;5.65;2.00;;;;;;;19.41;79.60;101337.09;5029725;28;20029;-71
2022/10/09 10:19:21;;;;;;;3.83;1.77;;;;;;;19.89;77.52;101335.75;5027773;28;20029;-70
2022/10/09 10:21:54;;;;;;;5.07;1.70;;;;;;;20.19;71.25;101338.34;5029953;28;20029;-70
2022/10/09 10:24:26;;;;;;;6.22;1.70;;;;;;;20.03;75.55;101334.09;5027325;28;20120;-69
2022/10/09 10:27:04;;;;;;;2.42;1.35;;;;;;;19.87;70.41;101337.75;5029456;28;20029;-65
2022/10/09 10:29:37;;;;;;;3.85;1.52;;;;;;;19.78;72.99;101323.03;5028263;28;20459;-69
2022/10/09 10:32:27;;;;;;;4.75;1.05;;;;;;;19.86;69.51;101314.13;5029927;28;20034;-69
2022/10/09 10:35:15;;;;;;;6.53;1.10;;;;;;;19.94;70.45;101321.16;5029491;28;20102;-71
2022/10/09 10:37:47;;;;;;;6.72;1.13;;;;;;;20.17;66.98;101309.44;5026922;28;20558;-71
2022/10/09 10:40:22;;;;;;;6.72;1.50;;;;;;;20.19;66.25;101310.06;5026656;28;20052;-68
2022/10/09 10:43:09;;;;;;;4.75;1.02;;;;;;;20.05;65.39;101312.75;5029414;28;20499;-67
2022/10/09 10:45:50;;;;;;;3.42;1.80;;;;;;;19.91;67.12;101303.81;5028905;28;20554;-70
2022/10/09 10:48:24;;;;;;;5.75;1.25;;;;;;;19.94;66.08;101315.88;5029013;28;20041;-73
2022/10/09 10:51:14;;;;;;;2.65;1.08;;;;;;;20.09;66.01;101303.44;5027990;28;20395;-70
2022/10/09 10:54:07;;;;;;;9.02;1.30;;;;;;;20.12;64.60;101303.06;5028568;28;20087;-69
2022/10/09 10:56:55;;;;;;;5.57;1.20;;;;;;;20.07;63.88;101300.97;5029280;28;20480;-70
2022/10/09 11:00:02;;;;;;;4.15;1.30;;;;;;;20.11;63.31;101296.97;5027808;28;20033;-71
2022/10/09 11:02:55;;;;;;;6.10;0.90;;;;;;;20.10;65.70;101289.19;5027555;28;20033;-73
2022/10/09 11:05:47;;;;;;;7.32;0.90;;;;;;;20.18;65.40;101287.28;5029118;28;20030;-71
2022/10/09 11:08:25;;;;;;;4.03;0.77;;;;;;;20.21;64.03;101281.59;5027774;28;20172;-67
2022/10/09 11:11:15;;;;;;;7.70;1.42;;;;;;;20.30;61.53;101289.44;5027883;28;20030;-66
2022/10/09 11:14:09;;;;;;;3.92;1.20;;;;;;;20.27;61.53;101284.50;5028886;28;20105;-68
2022/10/09 11:16:51;;;;;;;4.93;1.30;;;;;;;20.24;64.40;101284.88;5029109;28;20080;-69
2022/10/09 11:19:22;;;;;;;2.90;0.90;;;;;;;20.34;64.87;101285.38;5027733;28;20044;-70
2022/10/09 11:21:59;;;;;;;4.70;0.88;;;;;;;20.26;64.18;101277.56;5028081;28;20048;-71
2022/10/09 11:24:46;;;;;;;6.18;0.93;;;;;;;20.26;64.17;101274.94;5027679;28;20061;-71
2022/10/09 11:27:34;;;;;;;3.85;1.40;;;;;;;20.30;62.78;101282.31;5028349;28;20034;-73
2022/10/09 11:30:08;;;;;;;6.75;1.00;;;;;;;20.34;63.48;101278.25;5026182;28;20029;-72
2022/10/09 11:32:41;;;;;;;3.88;0.93;;;;;;;20.29;63.97;101269.25;5027806;28;20579;-70